sensor_id;sensor_type;location;lat;lon;timestamp;pressure;altitude;pressure_sealevel;temperature;humidity
39949;BME280;29070;48.102;-1.652;2022-09-09T00:02:34;100811.75;;;16.52;73.65
39949;BME280;29070;48.102;-1.652;2022-09-09T00:07:49;100806.91;;;16.49;73.60
39949;BME280;29070;48.102;-1.652;2022-09-09T00:13:20;100813.72;;;16.45;73.89
39949;BME280;29070;48.102;-1.652;2022-09-09T00:23:39;100802.66;;;16.36;73.85
39949;BME280;29070;48.102;-1.652;2022-09-09T00:28:46;100801.28;;;16.33;73.93
39949;BME280;29070;48.102;-1.652;2022-09-09T00:33:49;100799.91;;;16.31;74.16
39949;BME280;29070;48.102;-1.652;2022-09-09T00:38:57;100797.03;;;16.32;74.21
39949;BME280;29070;48.102;-1.652;2022-09-09T00:44:33;100791.72;;;16.32;74.99
39949;BME280;29070;48.102;-1.652;2022-09-09T00:54:51;100798.53;;;16.28;74.51
39949;BME280;29070;48.102;-1.652;2022-09-09T00:59:59;100792.66;;;16.26;74.38
39949;BME280;29070;48.102;-1.652;2022-09-09T01:05:07;100789.31;;;16.19;74.84
39949;BME280;29070;48.102;-1.652;2022-09-09T01:10:24;100781.25;;;16.14;75.12
39949;BME280;29070;48.102;-1.652;2022-09-09T01:15:31;100775.84;;;16.09;74.81
39949;BME280;29070;48.102;-1.652;2022-09-09T01:26:19;100787.94;;;16.05;75.09
39949;BME280;29070;48.102;-1.652;2022-09-09T01:31:38;100783.22;;;16.07;75.12
39949;BME280;29070;48.102;-1.652;2022-09-09T01:41:51;100787.38;;;16.03;75.43
39949;BME280;29070;48.102;-1.652;2022-09-09T01:46:52;100786.66;;;15.95;75.46
39949;BME280;29070;48.102;-1.652;2022-09-09T02:03:08;100791.72;;;15.85;76.12
39949;BME280;29070;48.102;-1.652;2022-09-09T02:08:21;100799.66;;;15.85;76.12
39949;BME280;29070;48.102;-1.652;2022-09-09T02:13:24;100797.56;;;15.87;76.33
39949;BME280;29070;48.102;-1.652;2022-09-09T02:18:32;100795.50;;;15.89;76.38
39949;BME280;29070;48.102;-1.652;2022-09-09T02:23:35;100800.56;;;15.91;76.24
39949;BME280;29070;48.102;-1.652;2022-09-09T02:28:37;100807.50;;;15.92;76.37
39949;BME280;29070;48.102;-1.652;2022-09-09T02:33:44;100808.88;;;15.94;76.79
39949;BME280;29070;48.102;-1.652;2022-09-09T02:38:47;100801.28;;;15.98;76.72
39949;BME280;29070;48.102;-1.652;2022-09-09T02:43:50;100804.28;;;16.01;76.68
39949;BME280;29070;48.102;-1.652;2022-09-09T02:49:00;100806.25;;;16.06;76.72
39949;BME280;29070;48.102;-1.652;2022-09-09T02:54:17;100807.97;;;16.12;76.76
39949;BME280;29070;48.102;-1.652;2022-09-09T02:59:21;100806.13;;;16.13;76.68
39949;BME280;29070;48.102;-1.652;2022-09-09T03:04:22;100811.53;;;16.18;76.73
39949;BME280;29070;48.102;-1.652;2022-09-09T03:09:24;100817.97;;;16.22;76.75
39949;BME280;29070;48.102;-1.652;2022-09-09T03:14:26;100821.56;;;16.28;76.76
39949;BME280;29070;48.102;-1.652;2022-09-09T03:19:26;100818.66;;;16.29;76.67
39949;BME280;29070;48.102;-1.652;2022-09-09T03:24:27;100823.06;;;16.35;76.66
39949;BME280;29070;48.102;-1.652;2022-09-09T03:29:28;100826.72;;;16.34;76.74
39949;BME280;29070;48.102;-1.652;2022-09-09T03:34:28;100825.13;;;16.33;76.58
39949;BME280;29070;48.102;-1.652;2022-09-09T03:39:28;100834.09;;;16.32;76.44
39949;BME280;29070;48.102;-1.652;2022-09-09T03:44:29;100828.81;;;16.32;76.74
39949;BME280;29070;48.102;-1.652;2022-09-09T03:49:30;100837.31;;;16.34;76.53
39949;BME280;29070;48.102;-1.652;2022-09-09T03:54:30;100842.63;;;16.34;76.55
39949;BME280;29070;48.102;-1.652;2022-09-09T03:59:31;100845.97;;;16.30;76.49
39949;BME280;29070;48.102;-1.652;2022-09-09T04:04:31;100839.75;;;16.24;76.38
39949;BME280;29070;48.102;-1.652;2022-09-09T04:09:32;100846.09;;;16.23;76.71
39949;BME280;29070;48.102;-1.652;2022-09-09T04:14:33;100845.03;;;16.12;76.68
39949;BME280;29070;48.102;-1.652;2022-09-09T04:19:33;100841.00;;;16.10;76.55
39949;BME280;29070;48.102;-1.652;2022-09-09T04:24:33;100840.41;;;16.08;76.51
39949;BME280;29070;48.102;-1.652;2022-09-09T04:29:35;100848.72;;;15.99;76.85
39949;BME280;29070;48.102;-1.652;2022-09-09T04:34:35;100842.84;;;15.97;76.67
39949;BME280;29070;48.102;-1.652;2022-09-09T04:39:36;100847.91;;;15.99;76.87
39949;BME280;29070;48.102;-1.652;2022-09-09T04:44:36;100846.16;;;15.93;77.01
39949;BME280;29070;48.102;-1.652;2022-09-09T04:49:37;100836.50;;;15.87;77.11
39949;BME280;29070;48.102;-1.652;2022-09-09T04:54:38;100847.88;;;15.87;77.18
39949;BME280;29070;48.102;-1.652;2022-09-09T04:59:39;100842.00;;;15.85;77.10
39949;BME280;29070;48.102;-1.652;2022-09-09T05:04:41;100852.00;;;15.83;77.21
39949;BME280;29070;48.102;-1.652;2022-09-09T05:09:42;100852.81;;;15.84;77.30
39949;BME280;29070;48.102;-1.652;2022-09-09T05:14:43;100843.50;;;15.81;77.27
39949;BME280;29070;48.102;-1.652;2022-09-09T05:19:43;100840.72;;;15.76;77.30
39949;BME280;29070;48.102;-1.652;2022-09-09T05:24:44;100856.22;;;15.72;77.22
39949;BME280;29070;48.102;-1.652;2022-09-09T05:29:45;100862.38;;;15.66;77.50
39949;BME280;29070;48.102;-1.652;2022-09-09T05:34:46;100872.97;;;15.66;77.60
39949;BME280;29070;48.102;-1.652;2022-09-09T05:39:46;100875.84;;;15.64;77.60
39949;BME280;29070;48.102;-1.652;2022-09-09T05:44:47;100887.25;;;15.65;77.68
39949;BME280;29070;48.102;-1.652;2022-09-09T05:49:47;100876.88;;;15.63;77.79
39949;BME280;29070;48.102;-1.652;2022-09-09T05:54:48;100888.72;;;15.61;78.08
39949;BME280;29070;48.102;-1.652;2022-09-09T05:59:48;100879.53;;;15.63;77.91
39949;BME280;29070;48.102;-1.652;2022-09-09T06:04:49;100886.41;;;15.64;78.04
39949;BME280;29070;48.102;-1.652;2022-09-09T06:09:50;100889.66;;;15.67;77.91
39949;BME280;29070;48.102;-1.652;2022-09-09T06:14:51;100888.28;;;15.64;78.19
39949;BME280;29070;48.102;-1.652;2022-09-09T06:19:52;100889.66;;;15.67;78.25
39949;BME280;29070;48.102;-1.652;2022-09-09T06:24:52;100893.69;;;15.69;78.15
39949;BME280;29070;48.102;-1.652;2022-09-09T06:29:53;100907.91;;;15.75;78.45
39949;BME280;29070;48.102;-1.652;2022-09-09T06:34:54;100906.88;;;15.76;78.33
39949;BME280;29070;48.102;-1.652;2022-09-09T06:39:54;100908.03;;;15.80;78.26
39949;BME280;29070;48.102;-1.652;2022-09-09T06:44:54;100924.06;;;15.85;78.34
39949;BME280;29070;48.102;-1.652;2022-09-09T06:49:55;100927.63;;;15.91;78.43
39949;BME280;29070;48.102;-1.652;2022-09-09T06:54:56;100929.25;;;15.92;78.28
39949;BME280;29070;48.102;-1.652;2022-09-09T06:59:58;100932.63;;;15.99;78.51
39949;BME280;29070;48.102;-1.652;2022-09-09T07:04:58;100935.16;;;16.06;78.59
39949;BME280;29070;48.102;-1.652;2022-09-09T07:09:59;100947.16;;;16.20;78.63
39949;BME280;29070;48.102;-1.652;2022-09-09T07:15:00;100945.03;;;16.41;78.69
39949;BME280;29070;48.102;-1.652;2022-09-09T07:20:01;100942.41;;;16.64;78.42
39949;BME280;29070;48.102;-1.652;2022-09-09T07:25:03;100948.66;;;16.82;78.28
39949;BME280;29070;48.102;-1.652;2022-09-09T07:30:04;100954.56;;;16.95;78.06
39949;BME280;29070;48.102;-1.652;2022-09-09T07:35:05;100952.69;;;17.08;77.83
39949;BME280;29070;48.102;-1.652;2022-09-09T07:40:05;100958.44;;;17.17;77.44
39949;BME280;29070;48.102;-1.652;2022-09-09T07:45:06;100962.84;;;17.23;77.31
39949;BME280;29070;48.102;-1.652;2022-09-09T07:50:07;100975.16;;;17.29;77.09
39949;BME280;29070;48.102;-1.652;2022-09-09T07:55:09;100984.38;;;17.26;76.81
39949;BME280;29070;48.102;-1.652;2022-09-09T08:00:10;100989.22;;;17.29;76.59
39949;BME280;29070;48.102;-1.652;2022-09-09T08:05:11;100987.38;;;17.30;76.11
39949;BME280;29070;48.102;-1.652;2022-09-09T08:10:11;100989.41;;;17.51;76.32
39949;BME280;29070;48.102;-1.652;2022-09-09T08:15:11;100994.91;;;17.73;75.96
39949;BME280;29070;48.102;-1.652;2022-09-09T08:20:12;101014.16;;;17.81;75.24
39949;BME280;29070;48.102;-1.652;2022-09-09T08:25:13;101004.81;;;17.78;74.74
39949;BME280;29070;48.102;-1.652;2022-09-09T08:30:13;101019.47;;;17.81;74.67
39949;BME280;29070;48.102;-1.652;2022-09-09T08:35:14;101016.47;;;17.89;74.40
39949;BME280;29070;48.102;-1.652;2022-09-09T08:40:21;101014.91;;;18.05;74.32
39949;BME280;29070;48.102;-1.652;2022-09-09T08:50:30;101019.16;;;18.35;73.30
39949;BME280;29070;48.102;-1.652;2022-09-09T09:05:50;101027.19;;;18.85;72.34
39949;BME280;29070;48.102;-1.652;2022-09-09T09:10:56;101025.78;;;19.17;72.64
39949;BME280;29070;48.102;-1.652;2022-09-09T09:16:10;101031.75;;;19.24;71.12
39949;BME280;29070;48.102;-1.652;2022-09-09T09:21:42;101036.19;;;19.57;71.26
39949;BME280;29070;48.102;-1.652;2022-09-09T09:26:43;101049.25;;;19.59;70.51
39949;BME280;29070;48.102;-1.652;2022-09-09T09:31:56;101050.66;;;19.67;69.81
39949;BME280;29070;48.102;-1.652;2022-09-09T09:36:59;101053.75;;;19.75;70.01
39949;BME280;29070;48.102;-1.652;2022-09-09T09:42:27;101055.69;;;19.63;68.30
39949;BME280;29070;48.102;-1.652;2022-09-09T09:47:28;101065.22;;;19.59;69.58
39949;BME280;29070;48.102;-1.652;2022-09-09T09:52:30;101059.66;;;19.60;69.06
39949;BME280;29070;48.102;-1.652;2022-09-09T09:57:32;101057.00;;;19.60;68.81
39949;BME280;29070;48.102;-1.652;2022-09-09T10:02:39;101075.06;;;19.75;68.67
39949;BME280;29070;48.102;-1.652;2022-09-09T10:07:44;101069.06;;;19.68;68.03
39949;BME280;29070;48.102;-1.652;2022-09-09T10:13:18;101071.34;;;19.76;68.07
39949;BME280;29070;48.102;-1.652;2022-09-09T10:39:38;101085.28;;;20.87;64.30
39949;BME280;29070;48.102;-1.652;2022-09-09T10:45:04;101101.41;;;20.70;65.89
39949;BME280;29070;48.102;-1.652;2022-09-09T10:55:51;101097.03;;;20.32;67.42
39949;BME280;29070;48.102;-1.652;2022-09-09T11:00:56;101093.63;;;20.42;67.04
39949;BME280;29070;48.102;-1.652;2022-09-09T11:06:07;101090.97;;;20.69;66.79
39949;BME280;29070;48.102;-1.652;2022-09-09T11:11:17;101101.31;;;20.87;66.02
39949;BME280;29070;48.102;-1.652;2022-09-09T11:16:40;101099.13;;;20.84;65.47
39949;BME280;29070;48.102;-1.652;2022-09-09T11:21:46;101102.38;;;20.91;65.65
39949;BME280;29070;48.102;-1.652;2022-09-09T11:27:00;101102.19;;;20.98;65.16
39949;BME280;29070;48.102;-1.652;2022-09-09T11:37:17;101099.34;;;21.15;64.82
39949;BME280;29070;48.102;-1.652;2022-09-09T11:42:24;101091.06;;;21.11;64.53
39949;BME280;29070;48.102;-1.652;2022-09-09T11:52:37;101087.38;;;21.18;63.83
39949;BME280;29070;48.102;-1.652;2022-09-09T11:57:38;101096.16;;;21.13;63.79
39949;BME280;29070;48.102;-1.652;2022-09-09T12:02:48;101101.34;;;20.98;62.66
39949;BME280;29070;48.102;-1.652;2022-09-09T12:07:54;101091.81;;;21.02;63.01
39949;BME280;29070;48.102;-1.652;2022-09-09T12:13:17;101093.50;;;21.18;62.65
39949;BME280;29070;48.102;-1.652;2022-09-09T12:18:31;101104.44;;;21.17;62.55
39949;BME280;29070;48.102;-1.652;2022-09-09T12:23:50;101091.13;;;21.22;61.70
39949;BME280;29070;48.102;-1.652;2022-09-09T12:29:13;101095.34;;;21.50;61.38
39949;BME280;29070;48.102;-1.652;2022-09-09T12:39:43;101083.00;;;21.97;61.95
39949;BME280;29070;48.102;-1.652;2022-09-09T12:44:56;101089.22;;;22.18;61.51
39949;BME280;29070;48.102;-1.652;2022-09-09T12:49:57;101094.25;;;22.19;61.74
39949;BME280;29070;48.102;-1.652;2022-09-09T12:54:59;101089.75;;;22.20;61.21
39949;BME280;29070;48.102;-1.652;2022-09-09T13:00:15;101103.13;;;22.25;60.85
39949;BME280;29070;48.102;-1.652;2022-09-09T13:05:20;101096.41;;;22.22;60.81
39949;BME280;29070;48.102;-1.652;2022-09-09T13:10:24;101097.28;;;22.33;60.70
39949;BME280;29070;48.102;-1.652;2022-09-09T13:15:28;101099.47;;;22.67;59.81
39949;BME280;29070;48.102;-1.652;2022-09-09T13:20:29;101102.16;;;22.77;59.25
39949;BME280;29070;48.102;-1.652;2022-09-09T13:25:31;101108.56;;;22.66;58.08
39949;BME280;29070;48.102;-1.652;2022-09-09T13:35:47;101099.13;;;22.27;56.93
39949;BME280;29070;48.102;-1.652;2022-09-09T13:40:57;101131.41;;;22.05;59.47
39949;BME280;29070;48.102;-1.652;2022-09-09T13:46:02;101143.81;;;21.74;60.87
39949;BME280;29070;48.102;-1.652;2022-09-09T13:51:04;101157.91;;;21.27;61.56
39949;BME280;29070;48.102;-1.652;2022-09-09T13:56:05;101177.59;;;20.88;62.36
39949;BME280;29070;48.102;-1.652;2022-09-09T14:01:05;101181.06;;;20.62;63.35
39949;BME280;29070;48.102;-1.652;2022-09-09T14:06:06;101167.34;;;20.53;63.63
39949;BME280;29070;48.102;-1.652;2022-09-09T14:11:11;101160.00;;;20.38;64.69
39949;BME280;29070;48.102;-1.652;2022-09-09T14:16:12;101157.28;;;20.33;64.63
39949;BME280;29070;48.102;-1.652;2022-09-09T14:21:13;101145.16;;;20.47;65.65
39949;BME280;29070;48.102;-1.652;2022-09-09T14:26:14;101154.94;;;20.64;65.63
39949;BME280;29070;48.102;-1.652;2022-09-09T14:31:15;101151.84;;;20.72;65.18
39949;BME280;29070;48.102;-1.652;2022-09-09T14:36:17;101161.41;;;20.68;65.36
39949;BME280;29070;48.102;-1.652;2022-09-09T14:41:19;101165.28;;;20.60;65.57
39949;BME280;29070;48.102;-1.652;2022-09-09T14:46:20;101197.06;;;20.40;65.89
39949;BME280;29070;48.102;-1.652;2022-09-09T14:51:24;101169.75;;;20.05;65.63
39949;BME280;29070;48.102;-1.652;2022-09-09T14:56:28;101157.03;;;20.12;65.71
39949;BME280;29070;48.102;-1.652;2022-09-09T15:01:31;101155.78;;;20.20;65.79
39949;BME280;29070;48.102;-1.652;2022-09-09T15:06:34;101145.63;;;20.17;65.72
39949;BME280;29070;48.102;-1.652;2022-09-09T15:11:37;101153.00;;;20.32;65.40
39949;BME280;29070;48.102;-1.652;2022-09-09T15:16:38;101143.19;;;20.37;65.55
39949;BME280;29070;48.102;-1.652;2022-09-09T15:21:39;101147.47;;;20.38;65.03
39949;BME280;29070;48.102;-1.652;2022-09-09T15:26:40;101153.19;;;20.25;64.73
39949;BME280;29070;48.102;-1.652;2022-09-09T15:31:40;101166.28;;;20.27;64.89
39949;BME280;29070;48.102;-1.652;2022-09-09T15:36:43;101157.28;;;20.33;65.02
39949;BME280;29070;48.102;-1.652;2022-09-09T15:41:45;101155.22;;;20.40;64.87
39949;BME280;29070;48.102;-1.652;2022-09-09T15:46:50;101154.00;;;20.53;64.84
39949;BME280;29070;48.102;-1.652;2022-09-09T15:51:56;101153.28;;;20.57;64.60
39949;BME280;29070;48.102;-1.652;2022-09-09T15:57:05;101153.41;;;20.68;64.54
39949;BME280;29070;48.102;-1.652;2022-09-09T16:02:05;101151.84;;;20.72;64.13
39949;BME280;29070;48.102;-1.652;2022-09-09T16:07:07;101150.28;;;20.76;64.45
39949;BME280;29070;48.102;-1.652;2022-09-09T16:12:08;101149.94;;;20.94;64.31
39949;BME280;29070;48.102;-1.652;2022-09-09T16:17:10;101150.91;;;20.88;63.67
39949;BME280;29070;48.102;-1.652;2022-09-09T16:22:11;101141.13;;;20.99;63.85
39949;BME280;29070;48.102;-1.652;2022-09-09T16:27:11;101141.31;;;20.87;62.92
39949;BME280;29070;48.102;-1.652;2022-09-09T16:32:11;101145.16;;;20.69;62.14
39949;BME280;29070;48.102;-1.652;2022-09-09T16:37:12;101151.09;;;20.54;62.14
39949;BME280;29070;48.102;-1.652;2022-09-09T16:42:13;101154.78;;;20.48;62.05
39949;BME280;29070;48.102;-1.652;2022-09-09T16:47:13;101148.28;;;20.39;61.62
39949;BME280;29070;48.102;-1.652;2022-09-09T16:52:13;101163.47;;;20.38;61.48
39949;BME280;29070;48.102;-1.652;2022-09-09T16:57:14;101162.66;;;20.38;61.46
39949;BME280;29070;48.102;-1.652;2022-09-09T17:02:14;101177.56;;;20.34;61.40
39949;BME280;29070;48.102;-1.652;2022-09-09T17:07:14;101173.19;;;20.28;61.49
39949;BME280;29070;48.102;-1.652;2022-09-09T17:12:15;101178.53;;;20.28;61.68
39949;BME280;29070;48.102;-1.652;2022-09-09T17:17:16;101185.50;;;20.29;61.74
39949;BME280;29070;48.102;-1.652;2022-09-09T17:22:17;101191.31;;;20.26;61.75
39949;BME280;29070;48.102;-1.652;2022-09-09T17:27:18;101201.91;;;20.21;61.64
39949;BME280;29070;48.102;-1.652;2022-09-09T17:32:18;101212.38;;;20.05;61.48
39949;BME280;29070;48.102;-1.652;2022-09-09T17:37:19;101213.19;;;19.89;61.41
39949;BME280;29070;48.102;-1.652;2022-09-09T17:42:19;101209.97;;;19.70;61.52
39949;BME280;29070;48.102;-1.652;2022-09-09T17:47:19;101220.63;;;19.53;61.31
39949;BME280;29070;48.102;-1.652;2022-09-09T17:52:20;101217.91;;;19.48;61.54
39949;BME280;29070;48.102;-1.652;2022-09-09T17:57:21;101210.97;;;19.47;61.57
39949;BME280;29070;48.102;-1.652;2022-09-09T18:02:22;101214.00;;;19.38;61.32
39949;BME280;29070;48.102;-1.652;2022-09-09T18:07:22;101216.59;;;19.33;61.56
39949;BME280;29070;48.102;-1.652;2022-09-09T18:12:23;101221.75;;;19.23;61.52
39949;BME280;29070;48.102;-1.652;2022-09-09T18:17:24;101223.53;;;19.17;61.68
39949;BME280;29070;48.102;-1.652;2022-09-09T18:22:24;101220.91;;;19.05;62.02
39949;BME280;29070;48.102;-1.652;2022-09-09T18:27:25;101222.34;;;18.96;62.35
39949;BME280;29070;48.102;-1.652;2022-09-09T18:32:25;101235.78;;;18.90;62.30
39949;BME280;29070;48.102;-1.652;2022-09-09T18:37:26;101239.16;;;18.85;62.58
39949;BME280;29070;48.102;-1.652;2022-09-09T18:42:27;101246.56;;;18.83;62.90
39949;BME280;29070;48.102;-1.652;2022-09-09T18:47:27;101250.28;;;18.82;63.15
39949;BME280;29070;48.102;-1.652;2022-09-09T18:52:27;101255.63;;;18.82;63.16
39949;BME280;29070;48.102;-1.652;2022-09-09T18:57:28;101264.81;;;18.79;63.33
39949;BME280;29070;48.102;-1.652;2022-09-09T19:02:28;101266.13;;;18.77;63.49
39949;BME280;29070;48.102;-1.652;2022-09-09T19:07:29;101274.09;;;18.77;63.70
39949;BME280;29070;48.102;-1.652;2022-09-09T19:12:29;101275.34;;;18.74;63.92
39949;BME280;29070;48.102;-1.652;2022-09-09T19:17:30;101279.31;;;18.72;64.09
39949;BME280;29070;48.102;-1.652;2022-09-09T19:22:31;101294.47;;;18.71;64.38
39949;BME280;29070;48.102;-1.652;2022-09-09T19:27:32;101296.88;;;18.73;64.38
39949;BME280;29070;48.102;-1.652;2022-09-09T19:32:32;101306.13;;;18.70;64.68
39949;BME280;29070;48.102;-1.652;2022-09-09T19:37:32;101316.66;;;18.65;64.76
39949;BME280;29070;48.102;-1.652;2022-09-09T19:42:33;101319.53;;;18.63;65.02
39949;BME280;29070;48.102;-1.652;2022-09-09T19:47:33;101316.66;;;18.65;65.16
39949;BME280;29070;48.102;-1.652;2022-09-09T19:52:34;101328.13;;;18.65;65.16
39949;BME280;29070;48.102;-1.652;2022-09-09T19:57:34;101338.06;;;18.58;65.26
39949;BME280;29070;48.102;-1.652;2022-09-09T20:02:36;101343.63;;;18.57;65.38
39949;BME280;29070;48.102;-1.652;2022-09-09T20:07:36;101341.06;;;18.50;65.52
39949;BME280;29070;48.102;-1.652;2022-09-09T20:12:36;101350.56;;;18.46;65.65
39949;BME280;29070;48.102;-1.652;2022-09-09T20:17:37;101357.38;;;18.42;65.81
39949;BME280;29070;48.102;-1.652;2022-09-09T20:22:37;101367.41;;;18.40;66.07
39949;BME280;29070;48.102;-1.652;2022-09-09T20:27:37;101370.66;;;18.42;66.13
39949;BME280;29070;48.102;-1.652;2022-09-09T20:32:38;101373.69;;;18.34;66.21
39949;BME280;29070;48.102;-1.652;2022-09-09T20:37:41;101378.75;;;18.23;66.37
39949;BME280;29070;48.102;-1.652;2022-09-09T20:42:41;101382.06;;;18.19;66.51
39949;BME280;29070;48.102;-1.652;2022-09-09T20:47:42;101378.25;;;18.15;66.66
39949;BME280;29070;48.102;-1.652;2022-09-09T20:52:43;101383.09;;;18.06;66.88
39949;BME280;29070;48.102;-1.652;2022-09-09T20:57:43;101390.38;;;17.99;67.04
39949;BME280;29070;48.102;-1.652;2022-09-09T21:02:44;101385.41;;;17.90;67.25
39949;BME280;29070;48.102;-1.652;2022-09-09T21:07:44;101389.97;;;17.83;67.47
39949;BME280;29070;48.102;-1.652;2022-09-09T21:12:45;101391.22;;;17.81;67.45
39949;BME280;29070;48.102;-1.652;2022-09-09T21:17:45;101394.09;;;17.79;67.70
39949;BME280;29070;48.102;-1.652;2022-09-09T21:22:46;101402.88;;;17.80;67.80
39949;BME280;29070;48.102;-1.652;2022-09-09T21:27:46;101394.56;;;17.76;68.03
39949;BME280;29070;48.102;-1.652;2022-09-09T21:32:46;101401.91;;;17.74;68.12
39949;BME280;29070;48.102;-1.652;2022-09-09T21:37:47;101399.59;;;17.66;68.19
39949;BME280;29070;48.102;-1.652;2022-09-09T21:42:48;101403.59;;;17.57;68.37
39949;BME280;29070;48.102;-1.652;2022-09-09T21:47:48;101404.72;;;17.49;68.37
39949;BME280;29070;48.102;-1.652;2022-09-09T21:52:50;101410.56;;;17.39;68.39
39949;BME280;29070;48.102;-1.652;2022-09-09T21:57:50;101415.56;;;17.29;68.64
39949;BME280;29070;48.102;-1.652;2022-09-09T22:02:51;101409.53;;;17.22;68.87
39949;BME280;29070;48.102;-1.652;2022-09-09T22:07:51;101424.72;;;17.14;68.80
39949;BME280;29070;48.102;-1.652;2022-09-09T22:12:52;101422.97;;;17.08;68.99
39949;BME280;29070;48.102;-1.652;2022-09-09T22:17:53;101417.50;;;17.03;69.16
39949;BME280;29070;48.102;-1.652;2022-09-09T22:22:54;101427.16;;;16.98;69.38
39949;BME280;29070;48.102;-1.652;2022-09-09T22:27:54;101421.91;;;16.91;69.43
39949;BME280;29070;48.102;-1.652;2022-09-09T22:32:56;101420.16;;;16.85;69.69
39949;BME280;29070;48.102;-1.652;2022-09-09T22:37:57;101431.22;;;16.75;69.84
39949;BME280;29070;48.102;-1.652;2022-09-09T22:42:57;101433.50;;;16.71;70.07
39949;BME280;29070;48.102;-1.652;2022-09-09T22:48:01;101424.78;;;16.64;70.22
39949;BME280;29070;48.102;-1.652;2022-09-09T22:53:05;101432.56;;;16.59;70.49
39949;BME280;29070;48.102;-1.652;2022-09-09T22:58:05;101440.97;;;16.56;70.42
39949;BME280;29070;48.102;-1.652;2022-09-09T23:03:06;101434.25;;;16.53;70.59
39949;BME280;29070;48.102;-1.652;2022-09-09T23:08:07;101436.75;;;16.48;70.72
39949;BME280;29070;48.102;-1.652;2022-09-09T23:13:07;101423.53;;;16.42;70.73
39949;BME280;29070;48.102;-1.652;2022-09-09T23:18:08;101425.81;;;16.38;71.03
39949;BME280;29070;48.102;-1.652;2022-09-09T23:23:08;101421.78;;;16.35;71.08
39949;BME280;29070;48.102;-1.652;2022-09-09T23:28:12;101420.59;;;16.31;71.14
39949;BME280;29070;48.102;-1.652;2022-09-09T23:33:12;101421.44;;;16.25;71.27
39949;BME280;29070;48.102;-1.652;2022-09-09T23:38:13;101420.25;;;16.21;71.46
39949;BME280;29070;48.102;-1.652;2022-09-09T23:43:13;101411.34;;;16.15;71.74
39949;BME280;29070;48.102;-1.652;2022-09-09T23:48:14;101421.75;;;16.10;71.64
39949;BME280;29070;48.102;-1.652;2022-09-09T23:53:15;101417.09;;;16.06;71.66
39949;BME280;29070;48.102;-1.652;2022-09-09T23:58:16;101424.25;;;15.98;71.89
